Time;durP1;ratioP1;P1;durP2;ratioP2;P2;SDS_P1;SDS_P2;PMS_P1;PMS_P2;Temp;Humidity;BMP_temperature;BMP_pressure;BME280_temperature;BME280_humidity;BME280_pressure;Samples;Min_cycle;Max_cycle;Signal;HPM_P1;HPM_P2
2022/11/12 00:02:21;;;;;;;13.23;5.80;;;;;;;;;;5136661;27;20039;-74
2022/11/12 00:04:47;;;;;;;16.40;6.45;;;;;;;;;;5136525;27;20038;-73
2022/11/12 00:07:13;;;;;;;16.05;5.80;;;;;;;;;;5136654;27;20043;-74
2022/11/12 00:09:40;;;;;;;14.60;5.97;;;;;;;;;;5136750;27;20047;-74
2022/11/12 00:12:06;;;;;;;11.20;5.38;;;;;;;;;;5136137;27;20039;-73
2022/11/12 00:14:32;;;;;;;14.73;6.03;;;;;;;;;;5136724;27;20043;-73
2022/11/12 00:16:58;;;;;;;17.67;6.63;;;;;;;;;;5136412;27;20043;-73
2022/11/12 00:19:24;;;;;;;17.85;6.35;;;;;;;;;;5137673;27;20043;-73
2022/11/12 00:21:50;;;;;;;12.45;4.85;;;;;;;;;;5135795;27;20501;-74
2022/11/12 00:24:17;;;;;;;14.48;6.70;;;;;;;;;;5135148;27;20082;-74
2022/11/12 00:26:43;;;;;;;9.45;4.93;;;;;;;;;;5136229;27;20512;-74
2022/11/12 00:29:09;;;;;;;10.43;5.38;;;;;;;;;;5135785;27;20118;-74
2022/11/12 00:31:36;;;;;;;13.80;5.88;;;;;;;;;;5135830;27;20045;-73
2022/11/12 00:34:02;;;;;;;13.57;7.90;;;;;;;;;;5137073;27;20055;-74
2022/11/12 00:36:28;;;;;;;9.45;4.93;;;;;;;;;;5136510;27;20501;-74
2022/11/12 00:38:54;;;;;;;10.50;5.13;;;;;;;;;;5137399;27;20051;-74
2022/11/12 00:41:20;;;;;;;14.93;5.18;;;;;;;;;;5136292;27;20035;-74
2022/11/12 00:43:46;;;;;;;12.82;5.57;;;;;;;;;;5136384;27;20069;-73
2022/11/12 00:46:12;;;;;;;15.68;5.00;;;;;;;;;;5136872;27;20121;-74
2022/11/12 00:48:38;;;;;;;17.98;5.80;;;;;;;;;;5136622;27;20118;-73
2022/11/12 00:51:05;;;;;;;7.47;4.88;;;;;;;;;;5136249;27;20035;-73
2022/11/12 00:53:31;;;;;;;16.55;4.97;;;;;;;;;;5136199;27;20077;-74
2022/11/12 00:56:01;;;;;;;13.15;6.72;;;;;;;;;;5135998;27;20059;-74
2022/11/12 00:58:29;;;;;;;12.77;5.25;;;;;;;;;;5136653;27;20035;-73
2022/11/12 01:00:55;;;;;;;15.65;5.22;;;;;;;;;;5136267;27;20482;-73
2022/11/12 01:03:21;;;;;;;12.55;4.60;;;;;;;;;;5136321;27;20068;-74
2022/11/12 01:05:47;;;;;;;8.98;4.75;;;;;;;;;;5136167;27;20081;-73
2022/11/12 01:08:13;;;;;;;14.95;5.18;;;;;;;;;;5135760;27;20497;-74
2022/11/12 01:10:39;;;;;;;10.77;5.30;;;;;;;;;;5136215;27;20054;-73
2022/11/12 01:13:05;;;;;;;10.05;5.75;;;;;;;;;;5136013;27;20520;-73
2022/11/12 01:15:31;;;;;;;10.27;5.15;;;;;;;;;;5135770;27;20138;-73
2022/11/12 01:17:58;;;;;;;12.43;4.72;;;;;;;;;;5135967;27;20051;-74
2022/11/12 01:20:24;;;;;;;12.20;5.60;;;;;;;;;;5136300;27;20070;-74
2022/11/12 01:22:50;;;;;;;11.10;4.63;;;;;;;;;;5135693;27;20088;-73
2022/11/12 01:25:16;;;;;;;8.98;4.68;;;;;;;;;;5135713;27;20044;-73
2022/11/12 01:27:42;;;;;;;13.55;5.28;;;;;;;;;;5135905;27;20049;-73
2022/11/12 01:30:09;;;;;;;8.45;4.40;;;;;;;;;;5136019;27;20050;-73
2022/11/12 01:32:36;;;;;;;8.07;4.85;;;;;;;;;;5136166;27;20034;-73
2022/11/12 01:35:02;;;;;;;13.18;4.45;;;;;;;;;;5135330;27;20051;-73
2022/11/12 01:37:28;;;;;;;9.00;3.95;;;;;;;;;;5135664;27;20047;-74
2022/11/12 01:39:54;;;;;;;8.68;3.92;;;;;;;;;;5135346;27;20118;-73
2022/11/12 01:42:23;;;;;;;12.82;4.70;;;;;;;;;;5135654;27;20119;-73
2022/11/12 01:44:52;;;;;;;14.07;4.22;;;;;;;;;;5135601;27;20043;-73
2022/11/12 01:47:23;;;;;;;9.00;3.67;;;;;;;;;;5135272;27;20070;-73
2022/11/12 01:49:51;;;;;;;9.35;3.83;;;;;;;;;;5135834;27;20077;-74
2022/11/12 01:52:17;;;;;;;8.07;4.00;;;;;;;;;;5135410;27;20035;-73
2022/11/12 01:54:46;;;;;;;7.38;4.10;;;;;;;;;;5135038;27;20032;-73
2022/11/12 01:57:14;;;;;;;10.02;3.60;;;;;;;;;;5135327;28;20043;-73
2022/11/12 01:59:43;;;;;;;9.70;3.83;;;;;;;;;;5135402;28;20149;-73
2022/11/12 02:02:09;;;;;;;6.95;2.88;;;;;;;;;;5135155;28;20397;-73
2022/11/12 02:04:37;;;;;;;6.30;3.13;;;;;;;;;;5135187;27;20043;-73
2022/11/12 02:07:04;;;;;;;4.80;2.92;;;;;;;;;;5135369;28;20053;-73
2022/11/12 02:09:30;;;;;;;9.73;3.15;;;;;;;;;;5135355;28;20122;-73
2022/11/12 02:11:57;;;;;;;9.75;2.97;;;;;;;;;;5135405;27;20509;-73
2022/11/12 02:14:24;;;;;;;5.72;2.95;;;;;;;;;;5135355;28;20508;-74
2022/11/12 02:16:50;;;;;;;9.60;3.05;;;;;;;;;;5135430;27;20050;-74
2022/11/12 02:19:16;;;;;;;11.15;3.75;;;;;;;;;;5135604;28;20051;-73
2022/11/12 02:21:42;;;;;;;7.05;3.72;;;;;;;;;;5135009;28;20062;-73
2022/11/12 02:24:11;;;;;;;6.93;3.40;;;;;;;;;;5135223;28;20039;-73
2022/11/12 02:26:40;;;;;;;9.15;3.30;;;;;;;;;;5134937;28;20106;-73
2022/11/12 02:29:06;;;;;;;9.48;3.65;;;;;;;;;;5135509;28;20449;-73
2022/11/12 02:31:32;;;;;;;9.40;3.58;;;;;;;;;;5134927;27;20042;-73
2022/11/12 02:33:58;;;;;;;8.02;3.15;;;;;;;;;;5135237;28;20039;-74
2022/11/12 02:36:24;;;;;;;5.80;3.08;;;;;;;;;;5135413;28;20047;-73
2022/11/12 02:38:50;;;;;;;9.10;3.60;;;;;;;;;;5135481;28;20077;-73
2022/11/12 02:41:17;;;;;;;8.68;3.53;;;;;;;;;;5135239;28;20130;-73
2022/11/12 02:43:43;;;;;;;7.53;3.00;;;;;;;;;;5135078;27;20066;-73
2022/11/12 02:46:09;;;;;;;7.10;3.20;;;;;;;;;;5135380;28;20073;-73
2022/11/12 02:48:36;;;;;;;5.85;2.33;;;;;;;;;;5135590;28;20035;-73
2022/11/12 02:51:02;;;;;;;4.45;2.78;;;;;;;;;;5137819;27;20482;-73
2022/11/12 02:53:28;;;;;;;5.75;2.55;;;;;;;;;;5138933;27;20038;-74
2022/11/12 02:55:54;;;;;;;5.63;2.30;;;;;;;;;;5138539;27;20144;-73
2022/11/12 02:58:23;;;;;;;4.90;2.45;;;;;;;;;;5139080;27;20035;-73
2022/11/12 03:00:50;;;;;;;7.75;3.50;;;;;;;;;;5138719;27;20417;-73
2022/11/12 03:03:16;;;;;;;4.82;2.72;;;;;;;;;;5138630;27;20063;-73
2022/11/12 03:05:43;;;;;;;5.10;2.80;;;;;;;;;;5138558;27;20066;-73
2022/11/12 03:08:09;;;;;;;8.68;2.67;;;;;;;;;;5138840;27;20031;-74
2022/11/12 03:10:39;;;;;;;4.47;2.10;;;;;;;;;;5138346;27;20043;-73
2022/11/12 03:13:05;;;;;;;4.60;2.22;;;;;;;;;;5138548;27;20067;-74
2022/11/12 03:15:31;;;;;;;3.72;2.58;;;;;;;;;;5138430;27;20119;-73
2022/11/12 03:17:58;;;;;;;9.60;3.03;;;;;;;;;;5138463;27;20047;-73
2022/11/12 03:20:25;;;;;;;7.13;2.63;;;;;;;;;;5138722;27;20077;-73
2022/11/12 03:22:58;;;;;;;4.88;2.38;;;;;;;;;;5138295;27;20039;-73
2022/11/12 03:25:25;;;;;;;5.95;2.47;;;;;;;;;;5138314;27;20043;-73
2022/11/12 03:28:05;;;;;;;4.72;2.47;;;;;;;;;;5138602;27;20126;-73
2022/11/12 03:30:33;;;;;;;7.03;2.45;;;;;;;;;;5138735;27;20100;-73
2022/11/12 03:32:59;;;;;;;8.68;2.47;;;;;;;;;;5138415;27;20474;-73
2022/11/12 03:35:26;;;;;;;6.43;2.80;;;;;;;;;;5138102;27;20051;-73
2022/11/12 03:37:52;;;;;;;5.80;2.63;;;;;;;;;;5137936;27;20078;-73
2022/11/12 03:40:18;;;;;;;4.10;2.70;;;;;;;;;;5137894;27;20047;-73
2022/11/12 03:42:47;;;;;;;7.00;2.50;;;;;;;;;;5138075;27;20042;-73
2022/11/12 03:45:14;;;;;;;6.30;2.58;;;;;;;;;;5137830;27;20039;-73
2022/11/12 03:47:51;;;;;;;3.17;2.30;;;;;;;;;;5138116;27;20038;-74
2022/11/12 03:50:18;;;;;;;12.90;2.97;;;;;;;;;;5138331;27;20051;-73
2022/11/12 03:52:45;;;;;;;7.22;3.10;;;;;;;;;;5138065;27;20042;-73
2022/11/12 03:55:11;;;;;;;5.38;2.90;;;;;;;;;;5137526;27;20050;-73
2022/11/12 03:57:38;;;;;;;5.78;2.90;;;;;;;;;;5137872;27;20047;-73
2022/11/12 04:00:05;;;;;;;6.85;3.05;;;;;;;;;;5137945;27;20042;-73
2022/11/12 04:02:31;;;;;;;5.15;2.85;;;;;;;;;;5137789;27;20031;-73
2022/11/12 04:10:28;;;;;;;7.72;3.30;;;;;;;;;;5137007;27;20037;-73
2022/11/12 04:15:39;;;;;;;8.15;3.08;;;;;;;;;;5137072;27;20058;-73
2022/11/12 04:23:34;;;;;;;6.40;3.03;;;;;;;;;;5136899;27;20057;-73
2022/11/12 04:31:30;;;;;;;6.40;3.08;;;;;;;;;;5136805;27;20046;-73
2022/11/12 04:34:27;;;;;;;5.93;3.30;;;;;;;;;;5136818;27;20069;-73
2022/11/12 04:36:42;;;;;;;4.95;2.92;;;;;;;;;;5136580;27;20051;-73
2022/11/12 04:39:08;;;;;;;4.50;2.85;;;;;;;;;;5137478;27;20043;-74
2022/11/12 04:47:03;;;;;;;4.03;2.53;;;;;;;;;;5136415;27;20042;-73
2022/11/12 04:49:30;;;;;;;5.82;2.75;;;;;;;;;;5136903;27;20108;-73
2022/11/12 04:52:14;;;;;;;6.07;3.17;;;;;;;;;;5136870;27;20039;-74
2022/11/12 04:54:40;;;;;;;6.07;3.05;;;;;;;;;;5136221;27;20043;-74
2022/11/12 04:57:06;;;;;;;5.47;2.70;;;;;;;;;;5136425;27;20047;-74
2022/11/12 04:59:32;;;;;;;4.20;2.38;;;;;;;;;;5136745;27;20043;-73
2022/11/12 05:01:58;;;;;;;6.05;2.40;;;;;;;;;;5136564;27;20039;-74
2022/11/12 05:04:28;;;;;;;6.38;3.15;;;;;;;;;;5136681;27;20115;-73
2022/11/12 05:06:57;;;;;;;3.60;2.03;;;;;;;;;;5136342;27;20035;-73
2022/11/12 05:09:28;;;;;;;6.53;2.97;;;;;;;;;;5137036;27;20047;-73
2022/11/12 05:11:55;;;;;;;4.35;2.80;;;;;;;;;;5136035;27;20405;-73
2022/11/12 05:14:22;;;;;;;5.05;2.95;;;;;;;;;;5135365;27;20045;-73
2022/11/12 05:16:48;;;;;;;8.77;3.00;;;;;;;;;;5136865;27;20043;-73
2022/11/12 05:19:14;;;;;;;11.77;8.70;;;;;;;;;;5136896;27;20458;-73
2022/11/12 05:24:25;;;;;;;5.05;2.83;;;;;;;;;;5135719;27;20080;-73
2022/11/12 05:26:52;;;;;;;6.07;3.20;;;;;;;;;;5136088;27;20079;-73
2022/11/12 05:29:18;;;;;;;3.53;2.70;;;;;;;;;;5136486;27;20045;-73
2022/11/12 05:31:44;;;;;;;6.72;3.17;;;;;;;;;;5136143;27;20050;-73
2022/11/12 05:34:11;;;;;;;5.22;3.40;;;;;;;;;;5135613;27;20482;-73
2022/11/12 05:36:37;;;;;;;6.47;3.40;;;;;;;;;;5135758;27;20196;-73
2022/11/12 05:39:03;;;;;;;4.85;3.88;;;;;;;;;;5136345;27;20054;-73
2022/11/12 05:41:30;;;;;;;7.53;2.97;;;;;;;;;;5136098;27;20031;-73
2022/11/12 05:43:56;;;;;;;8.70;3.55;;;;;;;;;;5135522;27;20512;-73
2022/11/12 05:46:22;;;;;;;5.45;3.42;;;;;;;;;;5135413;27;20126;-73
2022/11/12 05:48:48;;;;;;;5.60;3.22;;;;;;;;;;5135728;27;20046;-73
2022/11/12 05:51:15;;;;;;;7.10;3.75;;;;;;;;;;5135626;27;20481;-73
2022/11/12 05:53:41;;;;;;;5.78;3.05;;;;;;;;;;5135441;27;20043;-73
2022/11/12 05:56:07;;;;;;;8.48;3.40;;;;;;;;;;5135006;28;20509;-74
2022/11/12 05:58:33;;;;;;;7.80;3.90;;;;;;;;;;5135530;28;20043;-73
2022/11/12 06:01:00;;;;;;;9.90;4.00;;;;;;;;;;5134246;28;20065;-73
2022/11/12 06:03:26;;;;;;;6.38;3.42;;;;;;;;;;5115122;28;20043;-73
2022/11/12 06:05:52;;;;;;;9.38;3.78;;;;;;;;;;5114584;28;20040;-73
2022/11/12 06:08:18;;;;;;;6.28;3.55;;;;;;;;;;5114617;28;20490;-73
2022/11/12 06:10:48;;;;;;;6.97;3.35;;;;;;;;;;5114118;28;20386;-73
2022/11/12 06:13:14;;;;;;;6.60;3.65;;;;;;;;;;5114583;28;20044;-73
2022/11/12 06:15:40;;;;;;;9.48;3.63;;;;;;;;;;5114516;28;20046;-73
2022/11/12 06:18:07;;;;;;;9.82;4.13;;;;;;;;;;5114710;28;20083;-73
2022/11/12 06:20:33;;;;;;;6.55;3.75;;;;;;;;;;5114738;28;20071;-73
2022/11/12 06:23:00;;;;;;;5.93;3.72;;;;;;;;;;5114448;28;20043;-73
2022/11/12 06:25:26;;;;;;;8.20;3.90;;;;;;;;;;5116226;28;20069;-73
2022/11/12 06:27:52;;;;;;;8.75;4.22;;;;;;;;;;5119070;28;20044;-73
2022/11/12 06:30:18;;;;;;;12.80;3.75;;;;;;;;;;5118316;28;20043;-73
2022/11/12 06:32:48;;;;;;;9.43;4.35;;;;;;;;;;5119132;27;20039;-73
2022/11/12 06:35:14;;;;;;;8.75;4.28;;;;;;;;;;5137998;27;20134;-73
2022/11/12 06:37:41;;;;;;;8.10;4.75;;;;;;;;;;5139437;27;20043;-73
2022/11/12 06:40:07;;;;;;;7.90;4.55;;;;;;;;;;5139449;27;20079;-73
2022/11/12 06:42:34;;;;;;;10.40;7.45;;;;;;;;;;5138863;27;20530;-74
2022/11/12 06:45:00;;;;;;;7.82;5.50;;;;;;;;;;5138873;27;20043;-73
2022/11/12 06:47:26;;;;;;;10.45;5.47;;;;;;;;;;5138397;27;20594;-73
2022/11/12 06:49:52;;;;;;;6.38;5.00;;;;;;;;;;5139173;27;20094;-74
2022/11/12 06:52:18;;;;;;;12.85;6.05;;;;;;;;;;5139186;27;20112;-73
2022/11/12 06:54:44;;;;;;;9.20;4.63;;;;;;;;;;5138497;27;20043;-73
2022/11/12 06:57:11;;;;;;;7.55;5.03;;;;;;;;;;5138324;27;20042;-73
2022/11/12 06:59:37;;;;;;;8.07;5.45;;;;;;;;;;5138241;27;20047;-73
2022/11/12 07:02:04;;;;;;;16.23;9.93;;;;;;;;;;5138632;27;20124;-72
2022/11/12 07:04:30;;;;;;;12.98;6.50;;;;;;;;;;5138838;27;20035;-73
2022/11/12 07:06:56;;;;;;;7.32;6.00;;;;;;;;;;5138503;27;20043;-73
2022/11/12 07:09:23;;;;;;;11.25;6.47;;;;;;;;;;5139038;27;20482;-74
2022/11/12 07:11:49;;;;;;;11.07;7.00;;;;;;;;;;5119619;27;20394;-74
2022/11/12 07:14:15;;;;;;;12.85;7.07;;;;;;;;;;5138747;27;20122;-74
2022/11/12 07:16:41;;;;;;;12.45;7.00;;;;;;;;;;5137335;27;20055;-75
2022/11/12 07:19:07;;;;;;;14.57;7.22;;;;;;;;;;5138914;27;20066;-74
2022/11/12 07:21:33;;;;;;;10.63;6.82;;;;;;;;;;5138412;27;20066;-74
2022/11/12 07:23:59;;;;;;;12.82;6.57;;;;;;;;;;5138222;27;20035;-74
2022/11/12 07:26:26;;;;;;;12.85;7.18;;;;;;;;;;5138375;27;20497;-74
2022/11/12 07:28:55;;;;;;;28.13;19.20;;;;;;;;;;5138155;27;20035;-74
2022/11/12 07:31:22;;;;;;;15.13;9.02;;;;;;;;;;5138065;27;20031;-74
2022/11/12 07:33:48;;;;;;;16.98;12.02;;;;;;;;;;5138286;27;20039;-74
2022/11/12 07:36:15;;;;;;;12.27;8.02;;;;;;;;;;5136562;27;20042;-74
2022/11/12 07:38:42;;;;;;;11.98;7.15;;;;;;;;;;5136519;27;20039;-74
2022/11/12 07:41:15;;;;;;;12.18;7.53;;;;;;;;;;5137040;27;20039;-74
2022/11/12 07:43:42;;;;;;;17.08;15.23;;;;;;;;;;5137124;27;20500;-74
2022/11/12 07:46:09;;;;;;;11.07;6.85;;;;;;;;;;5137118;27;20539;-74
2022/11/12 07:48:36;;;;;;;11.52;7.13;;;;;;;;;;5137137;27;20114;-74
2022/11/12 07:51:06;;;;;;;11.63;6.72;;;;;;;;;;5134017;27;20058;-74
2022/11/12 07:53:32;;;;;;;12.30;7.00;;;;;;;;;;5137369;27;20035;-74
2022/11/12 07:55:59;;;;;;;11.30;6.63;;;;;;;;;;5136741;27;20062;-74
2022/11/12 07:58:26;;;;;;;8.82;5.90;;;;;;;;;;5136715;27;20043;-74
2022/11/12 08:00:52;;;;;;;9.35;5.35;;;;;;;;;;5131835;27;20032;-74
2022/11/12 08:03:19;;;;;;;9.18;5.60;;;;;;;;;;5116898;28;20047;-74
2022/11/12 08:05:45;;;;;;;9.60;6.15;;;;;;;;;;5129181;27;20035;-74
2022/11/12 08:08:11;;;;;;;6.55;4.97;;;;;;;;;;5136513;27;20076;-74
2022/11/12 08:10:37;;;;;;;9.35;5.45;;;;;;;;;;5136542;27;20051;-74
2022/11/12 08:13:04;;;;;;;7.90;5.15;;;;;;;;;;5136424;27;20038;-74
2022/11/12 08:15:30;;;;;;;8.27;4.88;;;;;;;;;;5136248;27;20031;-74
2022/11/12 08:17:57;;;;;;;10.25;4.70;;;;;;;;;;5136110;27;20054;-74
2022/11/12 08:20:23;;;;;;;9.50;4.85;;;;;;;;;;5136662;27;20063;-74
2022/11/12 08:22:49;;;;;;;9.15;4.72;;;;;;;;;;5136653;27;20091;-73
2022/11/12 08:25:15;;;;;;;9.80;4.65;;;;;;;;;;5136519;27;20523;-74
2022/11/12 08:27:41;;;;;;;6.13;4.70;;;;;;;;;;5136277;27;20051;-74
2022/11/12 08:30:08;;;;;;;7.35;4.80;;;;;;;;;;5137367;27;20064;-74
2022/11/12 08:32:34;;;;;;;10.52;4.65;;;;;;;;;;5136984;27;20046;-73
2022/11/12 08:35:00;;;;;;;14.45;4.57;;;;;;;;;;5136789;27;20047;-74
2022/11/12 08:37:26;;;;;;;8.25;4.40;;;;;;;;;;5136059;27;20547;-74
2022/11/12 08:39:52;;;;;;;5.18;3.88;;;;;;;;;;5136763;27;20145;-74
2022/11/12 08:42:19;;;;;;;6.05;3.90;;;;;;;;;;5136511;27;20061;-74
2022/11/12 08:44:45;;;;;;;4.50;4.00;;;;;;;;;;5136836;27;20051;-74
2022/11/12 08:47:11;;;;;;;4.00;3.60;;;;;;;;;;5135740;27;20049;-73
2022/11/12 08:49:37;;;;;;;5.18;4.00;;;;;;;;;;5136430;27;20059;-72
2022/11/12 08:52:04;;;;;;;7.60;4.72;;;;;;;;;;5136250;27;20038;-73
2022/11/12 08:54:30;;;;;;;5.30;4.40;;;;;;;;;;5136304;27;20049;-74
2022/11/12 08:56:56;;;;;;;8.95;7.82;;;;;;;;;;5136168;27;20043;-73
2022/11/12 08:59:22;;;;;;;9.13;5.65;;;;;;;;;;5136999;27;20050;-74
2022/11/12 09:01:48;;;;;;;7.65;4.20;;;;;;;;;;5136440;27;20154;-74
2022/11/12 09:04:14;;;;;;;6.32;3.78;;;;;;;;;;5136568;27;20039;-73
2022/11/12 09:06:40;;;;;;;7.32;3.60;;;;;;;;;;5136048;27;20122;-74
2022/11/12 09:09:06;;;;;;;5.97;3.92;;;;;;;;;;5136893;27;20096;-74
2022/11/12 09:11:32;;;;;;;6.53;4.10;;;;;;;;;;5136065;27;20067;-74
2022/11/12 09:13:59;;;;;;;7.80;6.10;;;;;;;;;;5136725;27;20043;-73
2022/11/12 09:16:25;;;;;;;7.20;5.07;;;;;;;;;;5136091;27;20055;-73
2022/11/12 09:18:51;;;;;;;6.80;4.65;;;;;;;;;;5136373;27;20523;-73
2022/11/12 09:21:20;;;;;;;8.93;4.38;;;;;;;;;;5135765;27;20096;-74
2022/11/12 09:23:46;;;;;;;5.80;3.95;;;;;;;;;;5135653;27;20031;-74
2022/11/12 09:26:12;;;;;;;8.35;4.63;;;;;;;;;;5135809;27;20130;-74
2022/11/12 09:28:38;;;;;;;7.95;4.82;;;;;;;;;;5136159;27;20064;-74
2022/11/12 09:31:06;;;;;;;7.53;4.65;;;;;;;;;;5135704;27;20035;-74
2022/11/12 09:33:33;;;;;;;7.50;3.92;;;;;;;;;;5135905;27;20039;-73
2022/11/12 09:36:00;;;;;;;7.30;4.15;;;;;;;;;;5135413;27;20063;-74
2022/11/12 09:38:26;;;;;;;8.35;3.78;;;;;;;;;;5135740;27;20208;-74
2022/11/12 09:40:52;;;;;;;5.20;3.63;;;;;;;;;;5133739;27;20520;-72
2022/11/12 09:43:36;;;;;;;6.75;3.85;;;;;;;;;;5134210;27;20031;-73
2022/11/12 09:46:06;;;;;;;5.43;3.63;;;;;;;;;;5123323;27;20046;-74
2022/11/12 09:48:36;;;;;;;5.30;3.53;;;;;;;;;;5114569;28;20490;-74
2022/11/12 09:51:05;;;;;;;5.90;3.28;;;;;;;;;;5114546;28;20115;-74
2022/11/12 09:53:31;;;;;;;4.28;2.78;;;;;;;;;;5131246;27;20077;-74
2022/11/12 09:55:58;;;;;;;6.60;2.40;;;;;;;;;;5132825;27;20035;-74
2022/11/12 09:58:26;;;;;;;3.55;2.47;;;;;;;;;;5134075;28;20497;-74
2022/11/12 10:00:54;;;;;;;5.57;2.65;;;;;;;;;;5131024;27;20039;-74
2022/11/12 10:03:39;;;;;;;4.80;2.60;;;;;;;;;;5134229;28;20031;-72
2022/11/12 10:06:13;;;;;;;3.53;2.65;;;;;;;;;;5130909;28;20045;-75
2022/11/12 10:08:59;;;;;;;3.72;2.78;;;;;;;;;;5133912;28;20108;-74
2022/11/12 10:12:30;;;;;;;3.08;2.60;;;;;;;;;;5129868;28;20047;-74
2022/11/12 10:14:20;;;;;;;5.88;2.80;;;;;;;;;;5132898;28;20106;-73
2022/11/12 10:16:46;;;;;;;4.63;2.63;;;;;;;;;;5131284;28;20055;-74
2022/11/12 10:19:22;;;;;;;5.25;2.70;;;;;;;;;;5134056;28;20039;-74
2022/11/12 10:22:14;;;;;;;5.55;3.35;;;;;;;;;;5131684;28;20039;-74
2022/11/12 10:24:41;;;;;;;4.43;2.63;;;;;;;;;;5129036;28;20043;-71
2022/11/12 10:27:16;;;;;;;6.07;4.68;;;;;;;;;;5133801;28;20152;-73
2022/11/12 10:30:01;;;;;;;7.65;3.00;;;;;;;;;;5133473;28;20039;-73
2022/11/12 10:32:27;;;;;;;3.38;2.17;;;;;;;;;;5126005;28;20039;-74
2022/11/12 10:34:53;;;;;;;4.45;2.83;;;;;;;;;;5132799;28;20104;-73
2022/11/12 10:37:19;;;;;;;4.82;2.80;;;;;;;;;;5131057;28;20569;-74
2022/11/12 10:39:46;;;;;;;5.43;3.45;;;;;;;;;;5131617;28;20374;-74
2022/11/12 10:42:19;;;;;;;2.85;2.05;;;;;;;;;;5134324;28;20066;-73
2022/11/12 10:44:45;;;;;;;4.03;1.75;;;;;;;;;;5133923;27;20623;-75
2022/11/12 10:47:32;;;;;;;2.92;2.13;;;;;;;;;;5133668;28;20035;-74
2022/11/12 10:50:16;;;;;;;4.85;2.15;;;;;;;;;;5134247;28;20039;-75
2022/11/12 10:53:06;;;;;;;5.60;2.95;;;;;;;;;;5127054;28;20075;-74
2022/11/12 10:55:33;;;;;;;2.92;2.13;;;;;;;;;;5122327;28;20110;-74
2022/11/12 10:58:11;;;;;;;4.07;2.53;;;;;;;;;;5133968;28;20074;-74
2022/11/12 11:00:49;;;;;;;3.53;2.20;;;;;;;;;;5134001;28;20416;-74
2022/11/12 11:03:16;;;;;;;3.22;2.10;;;;;;;;;;5133482;28;20122;-74
2022/11/12 11:05:49;;;;;;;2.78;2.15;;;;;;;;;;5134062;28;20567;-72
2022/11/12 11:08:30;;;;;;;5.35;2.00;;;;;;;;;;5133501;28;20046;-74
2022/11/12 11:11:15;;;;;;;3.05;2.03;;;;;;;;;;5130594;27;20043;-74
2022/11/12 11:13:42;;;;;;;3.65;2.50;;;;;;;;;;5132702;27;20065;-74
2022/11/12 11:16:12;;;;;;;5.32;2.17;;;;;;;;;;5128740;27;20046;-74
2022/11/12 11:18:40;;;;;;;2.65;1.85;;;;;;;;;;5136367;27;20047;-72
2022/11/12 11:21:19;;;;;;;4.50;1.67;;;;;;;;;;5135837;27;20031;-74
2022/11/12 11:23:45;;;;;;;4.60;1.95;;;;;;;;;;5136192;27;20039;-74
2022/11/12 11:26:32;;;;;;;2.70;2.13;;;;;;;;;;5135944;27;20526;-73
2022/11/12 11:29:16;;;;;;;3.05;1.92;;;;;;;;;;5137173;27;20047;-74
2022/11/12 11:31:45;;;;;;;3.75;2.40;;;;;;;;;;5136613;27;20505;-72
2022/11/12 11:34:29;;;;;;;2.28;2.00;;;;;;;;;;5118582;27;20417;-73
2022/11/12 11:37:05;;;;;;;4.07;2.35;;;;;;;;;;5136924;27;20092;-74
2022/11/12 11:39:53;;;;;;;4.00;1.90;;;;;;;;;;5135694;27;20035;-74
2022/11/12 11:42:22;;;;;;;4.65;1.70;;;;;;;;;;5136553;27;20058;-72
2022/11/12 11:44:59;;;;;;;5.88;2.42;;;;;;;;;;5135628;27;20111;-74
2022/11/12 11:47:26;;;;;;;3.05;2.05;;;;;;;;;;5137188;27;20096;-74
2022/11/12 11:50:11;;;;;;;2.28;1.92;;;;;;;;;;5136420;27;20062;-71
2022/11/12 11:52:39;;;;;;;4.55;2.72;;;;;;;;;;5135998;27;20501;-72
2022/11/12 11:55:15;;;;;;;4.25;1.70;;;;;;;;;;5136002;27;20076;-72
2022/11/12 11:58:00;;;;;;;2.30;2.00;;;;;;;;;;5136086;27;20047;-73
2022/11/12 12:00:33;;;;;;;1.63;1.52;;;;;;;;;;5136210;27;20122;-72
2022/11/12 12:03:18;;;;;;;2.25;1.70;;;;;;;;;;5135978;27;20050;-73
2022/11/12 12:06:04;;;;;;;5.60;2.50;;;;;;;;;;5135175;27;20497;-73
2022/11/12 12:08:36;;;;;;;2.42;1.70;;;;;;;;;;5135218;27;20055;-72
2022/11/12 12:11:14;;;;;;;2.45;1.83;;;;;;;;;;5115717;28;20073;-73
2022/11/12 12:13:41;;;;;;;2.22;1.38;;;;;;;;;;5115615;27;20112;-73
2022/11/12 12:16:07;;;;;;;2.05;1.20;;;;;;;;;;5135048;27;20068;-73
2022/11/12 12:18:48;;;;;;;1.85;1.27;;;;;;;;;;5135963;27;20584;-73
2022/11/12 12:21:19;;;;;;;2.20;1.50;;;;;;;;;;5136710;27;20498;-73
2022/11/12 12:23:50;;;;;;;2.25;1.95;;;;;;;;;;5134713;27;20096;-72
2022/11/12 12:26:30;;;;;;;3.22;2.30;;;;;;;;;;5135564;27;20167;-73
2022/11/12 12:28:59;;;;;;;3.80;2.65;;;;;;;;;;5133780;27;20374;-72
2022/11/12 12:31:29;;;;;;;1.50;1.40;;;;;;;;;;5134078;27;20047;-73
2022/11/12 12:34:01;;;;;;;3.47;1.67;;;;;;;;;;5136425;27;20035;-73
2022/11/12 12:36:36;;;;;;;3.30;1.60;;;;;;;;;;5136391;27;20521;-73
2022/11/12 12:39:14;;;;;;;2.15;1.65;;;;;;;;;;5136525;27;20489;-72
2022/11/12 12:41:44;;;;;;;2.35;1.40;;;;;;;;;;5136554;27;20046;-72
2022/11/12 12:44:10;;;;;;;3.70;1.48;;;;;;;;;;5136809;27;20031;-72
2022/11/12 12:46:41;;;;;;;2.80;1.65;;;;;;;;;;5134605;27;20047;-72
2022/11/12 12:49:10;;;;;;;3.95;2.28;;;;;;;;;;5133031;27;20043;-72
2022/11/12 12:51:36;;;;;;;3.22;1.40;;;;;;;;;;5136962;27;20034;-71
2022/11/12 12:54:02;;;;;;;1.50;1.40;;;;;;;;;;5136576;27;20039;-72
2022/11/12 12:56:31;;;;;;;6.55;1.92;;;;;;;;;;5136587;27;20082;-73
2022/11/12 12:59:02;;;;;;;2.40;1.38;;;;;;;;;;5126032;27;20039;-73
2022/11/12 13:01:30;;;;;;;2.45;1.60;;;;;;;;;;5135128;27;20070;-73
2022/11/12 13:04:08;;;;;;;1.70;1.25;;;;;;;;;;5127663;27;20034;-73
2022/11/12 13:06:37;;;;;;;1.88;1.55;;;;;;;;;;5130946;27;20046;-75
2022/11/12 13:09:05;;;;;;;3.25;1.42;;;;;;;;;;5135188;27;20481;-74
2022/11/12 13:14:34;;;;;;;26.52;20.25;;;;;;;;;;5115032;28;20077;-72
2022/11/12 13:17:02;;;;;;;6.25;5.45;;;;;;;;;;5114606;28;20059;-73
2022/11/12 13:19:34;;;;;;;1.85;1.40;;;;;;;;;;5123130;27;20043;-72
2022/11/12 13:22:18;;;;;;;3.90;2.05;;;;;;;;;;5135963;27;20470;-73
2022/11/12 13:25:00;;;;;;;1.85;1.38;;;;;;;;;;5126460;27;20039;-73
2022/11/12 13:27:44;;;;;;;1.30;1.20;;;;;;;;;;5135519;27;20489;-73
2022/11/12 13:30:14;;;;;;;2.50;1.35;;;;;;;;;;5133990;27;20046;-73
2022/11/12 13:32:46;;;;;;;1.42;1.30;;;;;;;;;;5135222;27;20047;-73
2022/11/12 13:35:12;;;;;;;2.03;1.08;;;;;;;;;;5133273;27;20040;-73
2022/11/12 13:37:46;;;;;;;3.25;1.35;;;;;;;;;;5134953;27;20045;-73
2022/11/12 13:40:14;;;;;;;3.20;1.33;;;;;;;;;;5133102;27;20043;-73
2022/11/12 13:42:46;;;;;;;2.40;1.15;;;;;;;;;;5134501;27;20035;-71
2022/11/12 13:45:13;;;;;;;2.63;1.55;;;;;;;;;;5134485;27;20114;-72
2022/11/12 13:47:39;;;;;;;27.30;22.52;;;;;;;;;;5133933;27;20113;-72
2022/11/12 13:50:08;;;;;;;31.23;29.48;;;;;;;;;;5133806;27;20558;-72
2022/11/12 13:52:34;;;;;;;1.77;1.38;;;;;;;;;;5133828;27;20110;-72
2022/11/12 13:55:04;;;;;;;1.55;1.40;;;;;;;;;;5133300;27;20114;-74
2022/11/12 13:57:31;;;;;;;1.92;1.17;;;;;;;;;;5134428;27;20051;-73
2022/11/12 14:00:26;;;;;;;5.03;1.20;;;;;;;;;;5133608;28;20055;-73
2022/11/12 14:02:53;;;;;;;1.40;1.13;;;;;;;;;;5120268;28;20046;-74
2022/11/12 14:05:22;;;;;;;1.42;0.95;;;;;;;;;;5134105;28;20054;-74
2022/11/12 14:07:56;;;;;;;1.77;1.10;;;;;;;;;;5133545;28;20500;-74
2022/11/12 14:10:25;;;;;;;2.22;1.33;;;;;;;;;;5131059;28;20537;-75
2022/11/12 14:13:09;;;;;;;2.05;1.08;;;;;;;;;;5133047;28;20045;-74
2022/11/12 14:15:48;;;;;;;1.10;1.00;;;;;;;;;;5127160;28;20047;-74
2022/11/12 14:18:14;;;;;;;1.23;1.10;;;;;;;;;;5133825;28;20047;-75
2022/11/12 14:20:41;;;;;;;1.55;1.05;;;;;;;;;;5122257;28;20573;-74
2022/11/12 14:23:11;;;;;;;2.60;1.52;;;;;;;;;;5130581;28;20110;-74
2022/11/12 14:25:56;;;;;;;2.92;1.20;;;;;;;;;;5120444;28;20043;-73
2022/11/12 14:28:22;;;;;;;1.92;1.20;;;;;;;;;;5132177;28;20529;-73
2022/11/12 14:30:48;;;;;;;1.20;1.00;;;;;;;;;;5129423;28;20122;-73
2022/11/12 14:33:19;;;;;;;2.10;1.13;;;;;;;;;;5132589;28;20031;-73
2022/11/12 14:35:46;;;;;;;2.60;0.90;;;;;;;;;;5133716;28;20043;-74
2022/11/12 14:38:21;;;;;;;2.92;0.95;;;;;;;;;;5131879;28;20043;-73
2022/11/12 14:40:49;;;;;;;1.00;0.90;;;;;;;;;;5132781;28;20055;-74
2022/11/12 14:43:19;;;;;;;1.48;0.90;;;;;;;;;;5133241;28;20064;-73
2022/11/12 14:45:49;;;;;;;1.00;0.90;;;;;;;;;;5114350;28;20482;-74
2022/11/12 14:48:16;;;;;;;0.95;0.63;;;;;;;;;;5118041;28;20071;-74
2022/11/12 14:50:44;;;;;;;1.10;1.00;;;;;;;;;;5122246;27;20050;-73
2022/11/12 14:53:18;;;;;;;1.48;1.05;;;;;;;;;;5137690;27;20039;-74
2022/11/12 14:55:47;;;;;;;1.08;0.98;;;;;;;;;;5138305;27;20039;-74
2022/11/12 14:58:17;;;;;;;1.85;1.10;;;;;;;;;;5137517;27;20043;-74
2022/11/12 15:00:45;;;;;;;2.65;0.80;;;;;;;;;;5138437;27;20039;-74
2022/11/12 15:03:17;;;;;;;1.42;0.95;;;;;;;;;;5138451;27;20042;-75
2022/11/12 15:05:57;;;;;;;1.17;1.00;;;;;;;;;;5137495;27;20035;-75
2022/11/12 15:08:31;;;;;;;5.13;1.10;;;;;;;;;;5128242;27;20046;-74
2022/11/12 15:10:58;;;;;;;2.85;1.05;;;;;;;;;;5136351;27;20364;-74
2022/11/12 15:13:25;;;;;;;5.10;2.17;;;;;;;;;;5137518;27;20051;-74
2022/11/12 15:16:07;;;;;;;1.90;1.30;;;;;;;;;;5137218;27;20077;-74
2022/11/12 15:18:35;;;;;;;1.52;1.00;;;;;;;;;;5137668;27;20073;-74
2022/11/12 15:21:04;;;;;;;2.00;1.00;;;;;;;;;;5137145;27;20073;-75
2022/11/12 15:23:30;;;;;;;2.00;1.30;;;;;;;;;;5137380;27;20046;-74